sensor_id;sensor_type;location;lat;lon;timestamp;P1;durP1;ratioP1;P2;durP2;ratioP2
18013;SDS011;9132;47.946;10.394;2022-10-10T00:00:41;8.37;;;7.47;;
18013;SDS011;9132;47.946;10.394;2022-10-10T00:03:09;7.63;;;6.83;;
18013;SDS011;9132;47.946;10.394;2022-10-10T00:05:36;7.40;;;6.70;;
18013;SDS011;9132;47.946;10.394;2022-10-10T00:08:02;8.43;;;7.30;;
18013;SDS011;9132;47.946;10.394;2022-10-10T00:10:29;8.57;;;7.60;;
18013;SDS011;9132;47.946;10.394;2022-10-10T00:12:55;8.90;;;6.67;;
18013;SDS011;9132;47.946;10.394;2022-10-10T00:15:21;7.53;;;6.83;;
18013;SDS011;9132;47.946;10.394;2022-10-10T00:17:48;7.53;;;6.73;;
18013;SDS011;9132;47.946;10.394;2022-10-10T00:20:16;7.23;;;6.47;;
18013;SDS011;9132;47.946;10.394;2022-10-10T00:22:43;10.17;;;6.53;;
18013;SDS011;9132;47.946;10.394;2022-10-10T00:25:09;11.43;;;7.03;;
18013;SDS011;9132;47.946;10.394;2022-10-10T00:27:36;9.33;;;6.80;;
18013;SDS011;9132;47.946;10.394;2022-10-10T00:30:02;8.00;;;7.20;;
18013;SDS011;9132;47.946;10.394;2022-10-10T00:32:29;8.50;;;7.20;;
18013;SDS011;9132;47.946;10.394;2022-10-10T00:34:55;9.30;;;7.13;;
18013;SDS011;9132;47.946;10.394;2022-10-10T00:37:23;9.10;;;6.73;;
18013;SDS011;9132;47.946;10.394;2022-10-10T00:39:49;7.67;;;6.77;;
18013;SDS011;9132;47.946;10.394;2022-10-10T00:42:16;7.37;;;6.67;;
18013;SDS011;9132;47.946;10.394;2022-10-10T00:44:43;8.20;;;6.27;;
18013;SDS011;9132;47.946;10.394;2022-10-10T00:47:10;7.03;;;6.33;;
18013;SDS011;9132;47.946;10.394;2022-10-10T00:49:37;7.23;;;6.20;;
18013;SDS011;9132;47.946;10.394;2022-10-10T00:52:04;8.30;;;6.83;;
18013;SDS011;9132;47.946;10.394;2022-10-10T00:54:32;7.10;;;6.37;;
18013;SDS011;9132;47.946;10.394;2022-10-10T00:56:59;8.07;;;6.67;;
18013;SDS011;9132;47.946;10.394;2022-10-10T00:59:29;7.40;;;6.27;;
18013;SDS011;9132;47.946;10.394;2022-10-10T01:01:56;7.13;;;6.43;;
18013;SDS011;9132;47.946;10.394;2022-10-10T01:04:27;6.93;;;6.23;;
18013;SDS011;9132;47.946;10.394;2022-10-10T01:06:54;7.47;;;6.70;;
18013;SDS011;9132;47.946;10.394;2022-10-10T01:09:20;7.53;;;6.83;;
18013;SDS011;9132;47.946;10.394;2022-10-10T01:11:50;6.97;;;6.27;;
18013;SDS011;9132;47.946;10.394;2022-10-10T01:14:20;7.47;;;6.33;;
18013;SDS011;9132;47.946;10.394;2022-10-10T01:16:53;7.77;;;6.50;;
18013;SDS011;9132;47.946;10.394;2022-10-10T01:19:33;6.90;;;6.20;;
18013;SDS011;9132;47.946;10.394;2022-10-10T01:22:04;9.10;;;5.80;;
18013;SDS011;9132;47.946;10.394;2022-10-10T01:24:44;6.03;;;5.43;;
18013;SDS011;9132;47.946;10.394;2022-10-10T01:27:20;7.10;;;5.10;;
18013;SDS011;9132;47.946;10.394;2022-10-10T01:29:49;5.30;;;4.80;;
18013;SDS011;9132;47.946;10.394;2022-10-10T01:32:18;5.77;;;5.23;;
18013;SDS011;9132;47.946;10.394;2022-10-10T01:34:50;5.97;;;4.67;;
18013;SDS011;9132;47.946;10.394;2022-10-10T01:37:20;6.50;;;4.70;;
18013;SDS011;9132;47.946;10.394;2022-10-10T01:39:48;5.57;;;5.00;;
18013;SDS011;9132;47.946;10.394;2022-10-10T01:42:19;5.10;;;4.50;;
18013;SDS011;9132;47.946;10.394;2022-10-10T01:44:49;5.20;;;4.67;;
18013;SDS011;9132;47.946;10.394;2022-10-10T01:47:18;5.13;;;4.63;;
18013;SDS011;9132;47.946;10.394;2022-10-10T01:49:44;6.07;;;4.67;;
18013;SDS011;9132;47.946;10.394;2022-10-10T01:52:14;4.47;;;4.07;;
18013;SDS011;9132;47.946;10.394;2022-10-10T01:54:46;4.47;;;4.07;;
18013;SDS011;9132;47.946;10.394;2022-10-10T01:57:18;5.53;;;4.17;;
18013;SDS011;9132;47.946;10.394;2022-10-10T01:59:50;4.37;;;3.97;;
18013;SDS011;9132;47.946;10.394;2022-10-10T02:02:20;5.30;;;3.87;;
18013;SDS011;9132;47.946;10.394;2022-10-10T02:04:48;4.77;;;3.87;;
18013;SDS011;9132;47.946;10.394;2022-10-10T02:07:18;4.23;;;3.83;;
18013;SDS011;9132;47.946;10.394;2022-10-10T02:09:46;3.80;;;3.50;;
18013;SDS011;9132;47.946;10.394;2022-10-10T02:12:14;3.87;;;3.57;;
18013;SDS011;9132;47.946;10.394;2022-10-10T02:14:41;3.70;;;3.40;;
18013;SDS011;9132;47.946;10.394;2022-10-10T02:17:10;3.50;;;3.20;;
18013;SDS011;9132;47.946;10.394;2022-10-10T02:19:37;3.90;;;3.50;;
18013;SDS011;9132;47.946;10.394;2022-10-10T02:22:04;4.80;;;3.30;;
18013;SDS011;9132;47.946;10.394;2022-10-10T02:24:31;5.07;;;3.43;;
18013;SDS011;9132;47.946;10.394;2022-10-10T02:26:58;6.60;;;3.57;;
18013;SDS011;9132;47.946;10.394;2022-10-10T02:29:28;3.33;;;3.03;;
18013;SDS011;9132;47.946;10.394;2022-10-10T02:32:01;3.47;;;3.17;;
18013;SDS011;9132;47.946;10.394;2022-10-10T02:34:31;4.17;;;3.13;;
18013;SDS011;9132;47.946;10.394;2022-10-10T02:37:00;3.13;;;2.83;;
18013;SDS011;9132;47.946;10.394;2022-10-10T02:39:28;3.90;;;3.07;;
18013;SDS011;9132;47.946;10.394;2022-10-10T02:41:55;3.20;;;2.90;;
18013;SDS011;9132;47.946;10.394;2022-10-10T02:44:21;3.27;;;2.97;;
18013;SDS011;9132;47.946;10.394;2022-10-10T02:46:48;3.47;;;3.17;;
18013;SDS011;9132;47.946;10.394;2022-10-10T02:49:18;3.10;;;2.80;;
18013;SDS011;9132;47.946;10.394;2022-10-10T02:51:48;3.17;;;2.87;;
18013;SDS011;9132;47.946;10.394;2022-10-10T02:54:15;8.43;;;3.13;;
18013;SDS011;9132;47.946;10.394;2022-10-10T02:56:41;3.77;;;2.80;;
18013;SDS011;9132;47.946;10.394;2022-10-10T02:59:07;3.13;;;2.83;;
18013;SDS011;9132;47.946;10.394;2022-10-10T03:01:34;3.47;;;3.10;;
18013;SDS011;9132;47.946;10.394;2022-10-10T03:04:00;4.00;;;3.00;;
18013;SDS011;9132;47.946;10.394;2022-10-10T03:06:27;3.00;;;2.70;;
18013;SDS011;9132;47.946;10.394;2022-10-10T03:08:55;3.27;;;2.47;;
18013;SDS011;9132;47.946;10.394;2022-10-10T03:11:21;5.07;;;3.13;;
18013;SDS011;9132;47.946;10.394;2022-10-10T03:13:47;3.10;;;2.30;;
18013;SDS011;9132;47.946;10.394;2022-10-10T03:16:14;2.73;;;2.53;;
18013;SDS011;9132;47.946;10.394;2022-10-10T03:18:40;2.77;;;2.57;;
18013;SDS011;9132;47.946;10.394;2022-10-10T03:21:06;3.00;;;2.43;;
18013;SDS011;9132;47.946;10.394;2022-10-10T03:23:32;4.80;;;2.50;;
18013;SDS011;9132;47.946;10.394;2022-10-10T03:26:01;4.03;;;2.33;;
18013;SDS011;9132;47.946;10.394;2022-10-10T03:28:27;2.80;;;2.60;;
18013;SDS011;9132;47.946;10.394;2022-10-10T03:30:53;3.40;;;2.20;;
18013;SDS011;9132;47.946;10.394;2022-10-10T03:33:20;2.77;;;2.57;;
18013;SDS011;9132;47.946;10.394;2022-10-10T03:35:46;3.80;;;2.87;;
18013;SDS011;9132;47.946;10.394;2022-10-10T03:38:13;3.90;;;2.40;;
18013;SDS011;9132;47.946;10.394;2022-10-10T03:40:39;2.43;;;2.10;;
18013;SDS011;9132;47.946;10.394;2022-10-10T03:43:08;3.07;;;2.00;;
18013;SDS011;9132;47.946;10.394;2022-10-10T03:45:34;4.00;;;2.10;;
18013;SDS011;9132;47.946;10.394;2022-10-10T03:48:01;2.27;;;2.00;;
18013;SDS011;9132;47.946;10.394;2022-10-10T03:50:27;4.40;;;2.10;;
18013;SDS011;9132;47.946;10.394;2022-10-10T03:52:54;4.43;;;2.07;;
18013;SDS011;9132;47.946;10.394;2022-10-10T03:55:20;2.03;;;1.90;;
18013;SDS011;9132;47.946;10.394;2022-10-10T03:57:47;2.00;;;1.73;;
18013;SDS011;9132;47.946;10.394;2022-10-10T04:00:14;3.17;;;1.90;;
18013;SDS011;9132;47.946;10.394;2022-10-10T04:02:41;1.80;;;1.70;;
18013;SDS011;9132;47.946;10.394;2022-10-10T04:05:07;2.90;;;1.90;;
18013;SDS011;9132;47.946;10.394;2022-10-10T04:07:34;3.93;;;2.30;;
18013;SDS011;9132;47.946;10.394;2022-10-10T04:10:00;4.10;;;2.30;;
18013;SDS011;9132;47.946;10.394;2022-10-10T04:12:26;4.30;;;2.00;;
18013;SDS011;9132;47.946;10.394;2022-10-10T04:14:53;3.77;;;2.00;;
18013;SDS011;9132;47.946;10.394;2022-10-10T04:17:20;3.00;;;1.80;;
18013;SDS011;9132;47.946;10.394;2022-10-10T04:19:46;2.30;;;2.03;;
18013;SDS011;9132;47.946;10.394;2022-10-10T04:22:13;2.47;;;1.97;;
18013;SDS011;9132;47.946;10.394;2022-10-10T04:24:40;4.17;;;2.00;;
18013;SDS011;9132;47.946;10.394;2022-10-10T04:27:07;2.30;;;2.10;;
18013;SDS011;9132;47.946;10.394;2022-10-10T04:29:33;4.77;;;1.80;;
18013;SDS011;9132;47.946;10.394;2022-10-10T04:31:59;3.93;;;1.90;;
18013;SDS011;9132;47.946;10.394;2022-10-10T04:34:27;4.13;;;1.90;;
18013;SDS011;9132;47.946;10.394;2022-10-10T04:36:54;2.00;;;1.90;;
18013;SDS011;9132;47.946;10.394;2022-10-10T04:39:20;7.00;;;2.10;;
18013;SDS011;9132;47.946;10.394;2022-10-10T04:41:46;2.17;;;1.97;;
18013;SDS011;9132;47.946;10.394;2022-10-10T04:44:14;4.70;;;2.00;;
18013;SDS011;9132;47.946;10.394;2022-10-10T04:46:40;5.20;;;2.27;;
18013;SDS011;9132;47.946;10.394;2022-10-10T04:49:06;4.13;;;2.13;;
18013;SDS011;9132;47.946;10.394;2022-10-10T04:51:34;3.73;;;2.13;;
18013;SDS011;9132;47.946;10.394;2022-10-10T04:54:01;3.80;;;2.13;;
18013;SDS011;9132;47.946;10.394;2022-10-10T04:56:27;3.13;;;1.90;;
18013;SDS011;9132;47.946;10.394;2022-10-10T04:58:54;2.43;;;2.23;;
18013;SDS011;9132;47.946;10.394;2022-10-10T05:01:20;4.20;;;1.90;;
18013;SDS011;9132;47.946;10.394;2022-10-10T05:03:46;5.07;;;1.87;;
18013;SDS011;9132;47.946;10.394;2022-10-10T05:06:13;3.57;;;1.70;;
18013;SDS011;9132;47.946;10.394;2022-10-10T05:08:40;2.47;;;1.93;;
18013;SDS011;9132;47.946;10.394;2022-10-10T05:11:07;2.43;;;2.00;;
18013;SDS011;9132;47.946;10.394;2022-10-10T05:13:33;3.13;;;1.87;;
18013;SDS011;9132;47.946;10.394;2022-10-10T05:15:59;3.80;;;1.93;;
18013;SDS011;9132;47.946;10.394;2022-10-10T05:18:25;3.23;;;1.80;;
18013;SDS011;9132;47.946;10.394;2022-10-10T05:20:52;4.67;;;1.90;;
18013;SDS011;9132;47.946;10.394;2022-10-10T05:23:18;3.88;;;2.30;;
18013;SDS011;9132;47.946;10.394;2022-10-10T05:25:48;3.33;;;2.30;;
18013;SDS011;9132;47.946;10.394;2022-10-10T05:28:14;4.37;;;2.03;;
18013;SDS011;9132;47.946;10.394;2022-10-10T05:30:41;6.73;;;2.10;;
18013;SDS011;9132;47.946;10.394;2022-10-10T05:33:07;2.10;;;1.80;;
18013;SDS011;9132;47.946;10.394;2022-10-10T05:35:33;3.93;;;2.10;;
18013;SDS011;9132;47.946;10.394;2022-10-10T05:38:00;5.00;;;1.93;;
18013;SDS011;9132;47.946;10.394;2022-10-10T05:40:26;3.20;;;1.50;;
18013;SDS011;9132;47.946;10.394;2022-10-10T05:42:54;3.00;;;2.07;;
18013;SDS011;9132;47.946;10.394;2022-10-10T05:45:20;3.43;;;1.70;;
18013;SDS011;9132;47.946;10.394;2022-10-10T05:47:46;2.67;;;1.83;;
18013;SDS011;9132;47.946;10.394;2022-10-10T05:50:17;2.97;;;2.10;;
18013;SDS011;9132;47.946;10.394;2022-10-10T05:52:47;5.90;;;2.40;;
18013;SDS011;9132;47.946;10.394;2022-10-10T05:55:14;4.47;;;2.20;;
18013;SDS011;9132;47.946;10.394;2022-10-10T05:57:40;2.63;;;2.13;;
18013;SDS011;9132;47.946;10.394;2022-10-10T06:00:08;3.80;;;2.13;;
18013;SDS011;9132;47.946;10.394;2022-10-10T06:02:35;3.70;;;2.23;;
18013;SDS011;9132;47.946;10.394;2022-10-10T06:05:01;4.15;;;2.33;;
18013;SDS011;9132;47.946;10.394;2022-10-10T06:07:28;4.00;;;2.20;;
18013;SDS011;9132;47.946;10.394;2022-10-10T06:09:55;5.33;;;2.00;;
18013;SDS011;9132;47.946;10.394;2022-10-10T06:12:21;5.33;;;2.87;;
18013;SDS011;9132;47.946;10.394;2022-10-10T06:14:47;5.57;;;2.23;;
18013;SDS011;9132;47.946;10.394;2022-10-10T06:17:15;3.97;;;2.20;;
18013;SDS011;9132;47.946;10.394;2022-10-10T06:19:41;4.47;;;2.43;;
18013;SDS011;9132;47.946;10.394;2022-10-10T06:22:08;4.53;;;2.00;;
18013;SDS011;9132;47.946;10.394;2022-10-10T06:24:34;6.53;;;2.10;;
18013;SDS011;9132;47.946;10.394;2022-10-10T06:27:00;7.13;;;2.30;;
18013;SDS011;9132;47.946;10.394;2022-10-10T06:29:27;5.57;;;1.80;;
18013;SDS011;9132;47.946;10.394;2022-10-10T06:31:53;3.27;;;1.87;;
18013;SDS011;9132;47.946;10.394;2022-10-10T06:34:21;6.27;;;2.13;;
18013;SDS011;9132;47.946;10.394;2022-10-10T06:36:47;6.57;;;1.90;;
18013;SDS011;9132;47.946;10.394;2022-10-10T06:39:14;3.03;;;1.93;;
18013;SDS011;9132;47.946;10.394;2022-10-10T06:41:40;5.33;;;3.17;;
18013;SDS011;9132;47.946;10.394;2022-10-10T06:44:06;5.63;;;2.90;;
18013;SDS011;9132;47.946;10.394;2022-10-10T06:46:33;7.50;;;2.43;;
18013;SDS011;9132;47.946;10.394;2022-10-10T06:49:01;4.40;;;2.17;;
18013;SDS011;9132;47.946;10.394;2022-10-10T06:51:29;3.00;;;2.27;;
18013;SDS011;9132;47.946;10.394;2022-10-10T06:53:55;5.13;;;2.17;;
18013;SDS011;9132;47.946;10.394;2022-10-10T06:56:22;11.03;;;2.70;;
18013;SDS011;9132;47.946;10.394;2022-10-10T06:58:48;3.43;;;2.30;;
18013;SDS011;9132;47.946;10.394;2022-10-10T07:01:15;4.30;;;1.97;;
18013;SDS011;9132;47.946;10.394;2022-10-10T07:03:42;3.43;;;1.93;;
18013;SDS011;9132;47.946;10.394;2022-10-10T07:06:09;7.53;;;2.00;;
18013;SDS011;9132;47.946;10.394;2022-10-10T07:08:37;9.30;;;2.80;;
18013;SDS011;9132;47.946;10.394;2022-10-10T07:11:03;5.17;;;2.40;;
18013;SDS011;9132;47.946;10.394;2022-10-10T07:13:31;4.17;;;3.43;;
18013;SDS011;9132;47.946;10.394;2022-10-10T07:15:57;4.97;;;3.97;;
18013;SDS011;9132;47.946;10.394;2022-10-10T07:18:24;8.23;;;5.23;;
18013;SDS011;9132;47.946;10.394;2022-10-10T07:20:53;3.60;;;2.67;;
18013;SDS011;9132;47.946;10.394;2022-10-10T07:23:20;6.90;;;2.47;;
18013;SDS011;9132;47.946;10.394;2022-10-10T07:25:47;6.03;;;2.37;;
18013;SDS011;9132;47.946;10.394;2022-10-10T07:28:14;6.50;;;2.10;;
18013;SDS011;9132;47.946;10.394;2022-10-10T07:30:41;5.43;;;2.53;;
18013;SDS011;9132;47.946;10.394;2022-10-10T07:33:08;4.43;;;2.83;;
18013;SDS011;9132;47.946;10.394;2022-10-10T07:35:34;3.87;;;2.50;;
18013;SDS011;9132;47.946;10.394;2022-10-10T07:38:00;4.10;;;2.97;;
18013;SDS011;9132;47.946;10.394;2022-10-10T07:40:27;9.77;;;2.77;;
18013;SDS011;9132;47.946;10.394;2022-10-10T07:42:54;6.10;;;4.53;;
18013;SDS011;9132;47.946;10.394;2022-10-10T07:45:21;12.47;;;8.33;;
18013;SDS011;9132;47.946;10.394;2022-10-10T07:47:47;6.47;;;5.00;;
18013;SDS011;9132;47.946;10.394;2022-10-10T07:50:13;7.67;;;4.40;;
18013;SDS011;9132;47.946;10.394;2022-10-10T07:52:40;7.03;;;3.47;;
18013;SDS011;9132;47.946;10.394;2022-10-10T07:55:06;6.90;;;3.60;;
18013;SDS011;9132;47.946;10.394;2022-10-10T07:57:34;9.00;;;2.70;;
18013;SDS011;9132;47.946;10.394;2022-10-10T08:00:01;8.20;;;4.90;;
18013;SDS011;9132;47.946;10.394;2022-10-10T08:02:28;5.97;;;2.77;;
18013;SDS011;9132;47.946;10.394;2022-10-10T08:04:55;6.53;;;2.60;;
18013;SDS011;9132;47.946;10.394;2022-10-10T08:07:21;4.50;;;2.40;;
18013;SDS011;9132;47.946;10.394;2022-10-10T08:09:47;6.90;;;2.83;;
18013;SDS011;9132;47.946;10.394;2022-10-10T08:12:14;2.87;;;2.03;;
18013;SDS011;9132;47.946;10.394;2022-10-10T08:14:40;11.07;;;2.53;;
18013;SDS011;9132;47.946;10.394;2022-10-10T08:17:08;2.67;;;2.20;;
18013;SDS011;9132;47.946;10.394;2022-10-10T08:19:34;8.43;;;2.37;;
18013;SDS011;9132;47.946;10.394;2022-10-10T08:22:00;7.70;;;2.40;;
18013;SDS011;9132;47.946;10.394;2022-10-10T08:24:27;4.70;;;2.33;;
18013;SDS011;9132;47.946;10.394;2022-10-10T08:26:53;4.37;;;2.40;;
18013;SDS011;9132;47.946;10.394;2022-10-10T08:29:19;6.63;;;2.13;;
18013;SDS011;9132;47.946;10.394;2022-10-10T08:31:46;6.53;;;2.00;;
18013;SDS011;9132;47.946;10.394;2022-10-10T08:34:13;2.23;;;1.50;;
18013;SDS011;9132;47.946;10.394;2022-10-10T08:36:40;5.13;;;1.60;;
18013;SDS011;9132;47.946;10.394;2022-10-10T08:39:06;4.27;;;1.90;;
18013;SDS011;9132;47.946;10.394;2022-10-10T08:41:36;4.30;;;2.15;;
18013;SDS011;9132;47.946;10.394;2022-10-10T08:44:04;4.80;;;2.00;;
18013;SDS011;9132;47.946;10.394;2022-10-10T08:46:34;4.93;;;1.90;;
18013;SDS011;9132;47.946;10.394;2022-10-10T08:49:02;3.07;;;1.80;;
18013;SDS011;9132;47.946;10.394;2022-10-10T08:51:36;2.50;;;1.60;;
18013;SDS011;9132;47.946;10.394;2022-10-10T08:54:04;4.47;;;2.00;;
18013;SDS011;9132;47.946;10.394;2022-10-10T08:56:32;5.13;;;1.70;;
18013;SDS011;9132;47.946;10.394;2022-10-10T08:59:00;4.17;;;1.90;;
18013;SDS011;9132;47.946;10.394;2022-10-10T09:01:30;4.07;;;1.60;;
18013;SDS011;9132;47.946;10.394;2022-10-10T09:03:59;4.30;;;1.83;;
18013;SDS011;9132;47.946;10.394;2022-10-10T09:06:29;4.03;;;1.90;;
18013;SDS011;9132;47.946;10.394;2022-10-10T09:09:05;3.07;;;1.80;;
18013;SDS011;9132;47.946;10.394;2022-10-10T09:11:37;7.40;;;2.03;;
18013;SDS011;9132;47.946;10.394;2022-10-10T09:14:10;5.23;;;2.03;;
18013;SDS011;9132;47.946;10.394;2022-10-10T09:16:39;3.63;;;2.05;;
18013;SDS011;9132;47.946;10.394;2022-10-10T09:19:13;4.43;;;1.67;;
18013;SDS011;9132;47.946;10.394;2022-10-10T09:21:40;5.57;;;2.00;;
18013;SDS011;9132;47.946;10.394;2022-10-10T09:24:10;5.67;;;1.80;;
18013;SDS011;9132;47.946;10.394;2022-10-10T09:26:41;6.10;;;1.77;;
18013;SDS011;9132;47.946;10.394;2022-10-10T09:29:15;5.47;;;2.23;;
18013;SDS011;9132;47.946;10.394;2022-10-10T09:31:48;3.77;;;1.63;;
18013;SDS011;9132;47.946;10.394;2022-10-10T09:34:17;7.85;;;2.17;;
18013;SDS011;9132;47.946;10.394;2022-10-10T09:36:44;5.60;;;1.90;;
18013;SDS011;9132;47.946;10.394;2022-10-10T09:39:15;7.28;;;1.88;;
18013;SDS011;9132;47.946;10.394;2022-10-10T09:41:44;3.38;;;2.03;;
18013;SDS011;9132;47.946;10.394;2022-10-10T09:44:13;4.32;;;1.80;;
18013;SDS011;9132;47.946;10.394;2022-10-10T09:46:40;3.92;;;1.85;;
18013;SDS011;9132;47.946;10.394;2022-10-10T09:49:06;4.57;;;1.60;;
18013;SDS011;9132;47.946;10.394;2022-10-10T09:51:32;5.63;;;2.25;;
18013;SDS011;9132;47.946;10.394;2022-10-10T09:53:59;2.42;;;1.42;;
18013;SDS011;9132;47.946;10.394;2022-10-10T09:56:28;7.25;;;2.03;;
18013;SDS011;9132;47.946;10.394;2022-10-10T09:58:55;2.97;;;1.50;;
18013;SDS011;9132;47.946;10.394;2022-10-10T10:01:22;2.13;;;1.50;;
18013;SDS011;9132;47.946;10.394;2022-10-10T10:04:06;4.78;;;2.10;;
18013;SDS011;9132;47.946;10.394;2022-10-10T10:06:32;4.28;;;1.88;;
18013;SDS011;9132;47.946;10.394;2022-10-10T10:08:59;2.95;;;1.40;;
18013;SDS011;9132;47.946;10.394;2022-10-10T10:11:28;2.33;;;1.50;;
18013;SDS011;9132;47.946;10.394;2022-10-10T10:13:56;7.22;;;2.10;;
18013;SDS011;9132;47.946;10.394;2022-10-10T10:16:30;6.00;;;1.80;;
18013;SDS011;9132;47.946;10.394;2022-10-10T10:18:56;5.65;;;1.70;;
18013;SDS011;9132;47.946;10.394;2022-10-10T10:21:23;4.45;;;1.90;;
18013;SDS011;9132;47.946;10.394;2022-10-10T10:23:51;7.35;;;2.28;;
18013;SDS011;9132;47.946;10.394;2022-10-10T10:26:19;4.72;;;1.88;;
18013;SDS011;9132;47.946;10.394;2022-10-10T10:28:48;8.00;;;1.80;;
18013;SDS011;9132;47.946;10.394;2022-10-10T10:31:21;7.22;;;1.85;;
18013;SDS011;9132;47.946;10.394;2022-10-10T10:33:51;5.35;;;1.75;;
18013;SDS011;9132;47.946;10.394;2022-10-10T10:36:24;3.35;;;1.70;;
18013;SDS011;9132;47.946;10.394;2022-10-10T10:38:54;6.15;;;1.92;;
18013;SDS011;9132;47.946;10.394;2022-10-10T10:41:25;2.28;;;1.73;;
18013;SDS011;9132;47.946;10.394;2022-10-10T10:44:12;2.78;;;1.50;;
18013;SDS011;9132;47.946;10.394;2022-10-10T10:46:43;3.97;;;1.88;;
18013;SDS011;9132;47.946;10.394;2022-10-10T10:49:13;4.45;;;1.98;;
18013;SDS011;9132;47.946;10.394;2022-10-10T10:54:24;6.47;;;2.17;;
18013;SDS011;9132;47.946;10.394;2022-10-10T10:56:55;4.70;;;1.98;;
18013;SDS011;9132;47.946;10.394;2022-10-10T10:59:26;3.05;;;1.70;;
18013;SDS011;9132;47.946;10.394;2022-10-10T11:01:59;4.53;;;1.90;;
18013;SDS011;9132;47.946;10.394;2022-10-10T11:04:46;3.08;;;1.88;;
18013;SDS011;9132;47.946;10.394;2022-10-10T11:07:18;3.97;;;1.88;;
18013;SDS011;9132;47.946;10.394;2022-10-10T11:09:47;3.85;;;1.90;;
18013;SDS011;9132;47.946;10.394;2022-10-10T11:12:20;3.47;;;1.75;;
18013;SDS011;9132;47.946;10.394;2022-10-10T11:14:54;3.97;;;1.70;;
18013;SDS011;9132;47.946;10.394;2022-10-10T11:17:22;5.35;;;2.13;;
18013;SDS011;9132;47.946;10.394;2022-10-10T11:19:52;4.90;;;1.67;;
18013;SDS011;9132;47.946;10.394;2022-10-10T11:22:21;4.57;;;1.70;;
18013;SDS011;9132;47.946;10.394;2022-10-10T11:24:50;5.80;;;2.10;;
18013;SDS011;9132;47.946;10.394;2022-10-10T11:27:19;9.02;;;2.22;;
18013;SDS011;9132;47.946;10.394;2022-10-10T11:29:49;5.18;;;1.83;;
18013;SDS011;9132;47.946;10.394;2022-10-10T11:32:20;4.65;;;1.73;;
18013;SDS011;9132;47.946;10.394;2022-10-10T11:34:51;2.72;;;1.80;;
18013;SDS011;9132;47.946;10.394;2022-10-10T11:37:23;2.17;;;1.90;;
18013;SDS011;9132;47.946;10.394;2022-10-10T11:39:51;5.53;;;2.00;;
18013;SDS011;9132;47.946;10.394;2022-10-10T11:42:19;8.27;;;2.20;;
18013;SDS011;9132;47.946;10.394;2022-10-10T11:44:49;6.80;;;2.25;;
18013;SDS011;9132;47.946;10.394;2022-10-10T11:47:18;5.32;;;2.17;;
18013;SDS011;9132;47.946;10.394;2022-10-10T11:49:50;3.47;;;1.83;;
18013;SDS011;9132;47.946;10.394;2022-10-10T11:52:19;3.63;;;1.85;;
18013;SDS011;9132;47.946;10.394;2022-10-10T11:54:49;3.22;;;1.70;;
18013;SDS011;9132;47.946;10.394;2022-10-10T11:57:19;4.82;;;1.73;;
18013;SDS011;9132;47.946;10.394;2022-10-10T11:59:47;4.05;;;1.85;;
18013;SDS011;9132;47.946;10.394;2022-10-10T12:02:16;5.63;;;1.90;;
18013;SDS011;9132;47.946;10.394;2022-10-10T12:04:43;3.75;;;1.67;;
18013;SDS011;9132;47.946;10.394;2022-10-10T12:07:12;7.40;;;2.38;;
18013;SDS011;9132;47.946;10.394;2022-10-10T12:09:40;4.15;;;1.73;;
18013;SDS011;9132;47.946;10.394;2022-10-10T12:12:09;4.57;;;2.00;;
18013;SDS011;9132;47.946;10.394;2022-10-10T12:14:37;4.38;;;1.90;;
18013;SDS011;9132;47.946;10.394;2022-10-10T12:17:13;3.67;;;1.95;;
18013;SDS011;9132;47.946;10.394;2022-10-10T12:19:42;2.60;;;1.83;;
18013;SDS011;9132;47.946;10.394;2022-10-10T12:22:17;2.70;;;1.80;;
18013;SDS011;9132;47.946;10.394;2022-10-10T12:27:28;6.53;;;1.73;;
18013;SDS011;9132;47.946;10.394;2022-10-10T12:32:40;8.07;;;2.53;;
18013;SDS011;9132;47.946;10.394;2022-10-10T12:35:25;3.90;;;1.80;;
18013;SDS011;9132;47.946;10.394;2022-10-10T12:43:36;3.10;;;1.63;;
18013;SDS011;9132;47.946;10.394;2022-10-10T12:46:06;2.05;;;1.50;;
18013;SDS011;9132;47.946;10.394;2022-10-10T12:48:33;2.97;;;1.85;;
18013;SDS011;9132;47.946;10.394;2022-10-10T12:51:00;5.97;;;1.60;;
18013;SDS011;9132;47.946;10.394;2022-10-10T12:53:28;5.43;;;2.00;;
18013;SDS011;9132;47.946;10.394;2022-10-10T12:55:55;2.80;;;1.95;;
18013;SDS011;9132;47.946;10.394;2022-10-10T12:58:25;4.50;;;1.70;;
18013;SDS011;9132;47.946;10.394;2022-10-10T13:00:54;2.80;;;1.60;;
18013;SDS011;9132;47.946;10.394;2022-10-10T13:03:23;2.60;;;2.08;;
18013;SDS011;9132;47.946;10.394;2022-10-10T13:05:52;6.47;;;2.10;;
18013;SDS011;9132;47.946;10.394;2022-10-10T13:08:19;4.75;;;1.63;;
18013;SDS011;9132;47.946;10.394;2022-10-10T13:10:59;4.78;;;2.05;;
18013;SDS011;9132;47.946;10.394;2022-10-10T13:13:26;5.10;;;2.03;;
18013;SDS011;9132;47.946;10.394;2022-10-10T13:15:54;3.47;;;1.92;;
18013;SDS011;9132;47.946;10.394;2022-10-10T13:18:31;3.25;;;2.13;;
18013;SDS011;9132;47.946;10.394;2022-10-10T13:20:57;6.35;;;2.08;;
18013;SDS011;9132;47.946;10.394;2022-10-10T13:23:24;5.38;;;1.77;;
18013;SDS011;9132;47.946;10.394;2022-10-10T13:25:50;5.72;;;2.03;;
18013;SDS011;9132;47.946;10.394;2022-10-10T13:28:18;3.70;;;2.03;;
18013;SDS011;9132;47.946;10.394;2022-10-10T13:30:45;3.55;;;2.03;;
18013;SDS011;9132;47.946;10.394;2022-10-10T13:33:13;3.35;;;2.35;;
18013;SDS011;9132;47.946;10.394;2022-10-10T13:35:40;5.47;;;1.70;;
18013;SDS011;9132;47.946;10.394;2022-10-10T13:38:07;4.50;;;2.28;;
18013;SDS011;9132;47.946;10.394;2022-10-10T13:40:33;3.85;;;2.10;;
18013;SDS011;9132;47.946;10.394;2022-10-10T13:43:00;6.85;;;2.63;;
18013;SDS011;9132;47.946;10.394;2022-10-10T13:45:31;4.45;;;2.38;;
18013;SDS011;9132;47.946;10.394;2022-10-10T13:48:11;5.53;;;2.30;;
18013;SDS011;9132;47.946;10.394;2022-10-10T13:50:50;6.10;;;2.10;;
18013;SDS011;9132;47.946;10.394;2022-10-10T13:53:23;4.63;;;2.53;;
18013;SDS011;9132;47.946;10.394;2022-10-10T13:55:50;4.30;;;2.22;;
18013;SDS011;9132;47.946;10.394;2022-10-10T13:58:16;7.13;;;2.50;;
18013;SDS011;9132;47.946;10.394;2022-10-10T14:00:42;5.43;;;2.28;;
18013;SDS011;9132;47.946;10.394;2022-10-10T14:03:18;5.95;;;2.30;;
18013;SDS011;9132;47.946;10.394;2022-10-10T14:05:46;5.60;;;2.33;;
18013;SDS011;9132;47.946;10.394;2022-10-10T14:08:14;5.47;;;2.35;;
18013;SDS011;9132;47.946;10.394;2022-10-10T14:10:41;7.60;;;2.40;;
18013;SDS011;9132;47.946;10.394;2022-10-10T14:13:11;11.15;;;2.38;;
18013;SDS011;9132;47.946;10.394;2022-10-10T14:15:42;6.22;;;2.40;;
18013;SDS011;9132;47.946;10.394;2022-10-10T14:18:12;10.40;;;2.78;;
18013;SDS011;9132;47.946;10.394;2022-10-10T14:20:39;6.38;;;2.47;;
18013;SDS011;9132;47.946;10.394;2022-10-10T14:23:05;10.15;;;2.60;;
18013;SDS011;9132;47.946;10.394;2022-10-10T14:25:33;3.95;;;2.30;;
18013;SDS011;9132;47.946;10.394;2022-10-10T14:28:01;6.60;;;2.58;;
18013;SDS011;9132;47.946;10.394;2022-10-10T14:30:27;6.22;;;2.50;;
18013;SDS011;9132;47.946;10.394;2022-10-10T14:32:54;9.32;;;2.80;;
18013;SDS011;9132;47.946;10.394;2022-10-10T14:35:20;8.95;;;2.65;;
18013;SDS011;9132;47.946;10.394;2022-10-10T14:37:46;8.45;;;2.72;;
18013;SDS011;9132;47.946;10.394;2022-10-10T14:40:16;7.32;;;2.33;;
18013;SDS011;9132;47.946;10.394;2022-10-10T14:42:45;6.30;;;2.33;;
18013;SDS011;9132;47.946;10.394;2022-10-10T14:45:11;6.65;;;2.40;;
18013;SDS011;9132;47.946;10.394;2022-10-10T14:47:38;8.02;;;2.72;;
18013;SDS011;9132;47.946;10.394;2022-10-10T14:50:09;7.68;;;2.40;;
18013;SDS011;9132;47.946;10.394;2022-10-10T14:52:37;4.55;;;2.40;;
18013;SDS011;9132;47.946;10.394;2022-10-10T14:55:04;4.05;;;2.10;;
18013;SDS011;9132;47.946;10.394;2022-10-10T14:57:31;7.85;;;2.63;;
18013;SDS011;9132;47.946;10.394;2022-10-10T14:59:58;8.07;;;2.50;;
18013;SDS011;9132;47.946;10.394;2022-10-10T15:02:25;8.32;;;2.58;;
18013;SDS011;9132;47.946;10.394;2022-10-10T15:04:51;5.32;;;2.63;;
18013;SDS011;9132;47.946;10.394;2022-10-10T15:07:17;7.60;;;2.22;;